sensor_id;sensor_type;location;lat;lon;timestamp;P1;durP1;ratioP1;P2;durP2;ratioP2
14900;SDS011;7542;49.078;9.194;2023-05-27T00:00:55;6.60;;;2.50;;
14900;SDS011;7542;49.078;9.194;2023-05-27T00:01:57;7.53;;;2.50;;
14900;SDS011;7542;49.078;9.194;2023-05-27T00:02:59;4.43;;;2.50;;
14900;SDS011;7542;49.078;9.194;2023-05-27T00:04:04;3.70;;;2.50;;
14900;SDS011;7542;49.078;9.194;2023-05-27T00:05:06;4.47;;;2.53;;
14900;SDS011;7542;49.078;9.194;2023-05-27T00:06:09;5.13;;;2.60;;
14900;SDS011;7542;49.078;9.194;2023-05-27T00:07:11;4.53;;;2.60;;
14900;SDS011;7542;49.078;9.194;2023-05-27T00:08:13;4.47;;;2.47;;
14900;SDS011;7542;49.078;9.194;2023-05-27T00:09:15;5.87;;;2.77;;
14900;SDS011;7542;49.078;9.194;2023-05-27T00:10:17;5.83;;;2.53;;
14900;SDS011;7542;49.078;9.194;2023-05-27T00:11:18;2.83;;;2.20;;
14900;SDS011;7542;49.078;9.194;2023-05-27T00:12:21;4.90;;;2.70;;
14900;SDS011;7542;49.078;9.194;2023-05-27T00:13:23;2.93;;;2.40;;
14900;SDS011;7542;49.078;9.194;2023-05-27T00:14:25;2.90;;;2.33;;
14900;SDS011;7542;49.078;9.194;2023-05-27T00:15:27;3.70;;;2.30;;
14900;SDS011;7542;49.078;9.194;2023-05-27T00:16:29;4.80;;;2.27;;
14900;SDS011;7542;49.078;9.194;2023-05-27T00:17:32;4.90;;;2.40;;
14900;SDS011;7542;49.078;9.194;2023-05-27T00:18:36;4.37;;;2.60;;
14900;SDS011;7542;49.078;9.194;2023-05-27T00:19:38;3.33;;;2.50;;
14900;SDS011;7542;49.078;9.194;2023-05-27T00:20:41;5.83;;;2.27;;
14900;SDS011;7542;49.078;9.194;2023-05-27T00:21:43;3.60;;;2.20;;
14900;SDS011;7542;49.078;9.194;2023-05-27T00:22:45;3.57;;;2.30;;
14900;SDS011;7542;49.078;9.194;2023-05-27T00:23:51;4.97;;;2.40;;
14900;SDS011;7542;49.078;9.194;2023-05-27T00:24:53;3.23;;;2.17;;
14900;SDS011;7542;49.078;9.194;2023-05-27T00:25:55;3.50;;;2.10;;
14900;SDS011;7542;49.078;9.194;2023-05-27T00:26:56;3.03;;;2.30;;
14900;SDS011;7542;49.078;9.194;2023-05-27T00:27:58;6.07;;;2.40;;
14900;SDS011;7542;49.078;9.194;2023-05-27T00:29:00;5.07;;;2.40;;
14900;SDS011;7542;49.078;9.194;2023-05-27T00:30:02;2.93;;;2.30;;
14900;SDS011;7542;49.078;9.194;2023-05-27T00:31:04;2.70;;;2.50;;
14900;SDS011;7542;49.078;9.194;2023-05-27T00:32:06;3.30;;;2.67;;
14900;SDS011;7542;49.078;9.194;2023-05-27T00:33:08;6.32;;;2.08;;
14900;SDS011;7542;49.078;9.194;2023-05-27T00:34:11;3.40;;;2.30;;
14900;SDS011;7542;49.078;9.194;2023-05-27T00:35:13;2.77;;;2.10;;
14900;SDS011;7542;49.078;9.194;2023-05-27T00:36:15;4.53;;;1.80;;
14900;SDS011;7542;49.078;9.194;2023-05-27T00:37:18;5.00;;;2.43;;
14900;SDS011;7542;49.078;9.194;2023-05-27T00:38:20;2.20;;;2.00;;
14900;SDS011;7542;49.078;9.194;2023-05-27T00:39:22;3.90;;;2.13;;
14900;SDS011;7542;49.078;9.194;2023-05-27T00:40:25;3.23;;;2.40;;
14900;SDS011;7542;49.078;9.194;2023-05-27T00:41:31;5.60;;;2.23;;
14900;SDS011;7542;49.078;9.194;2023-05-27T00:42:33;2.43;;;1.83;;
14900;SDS011;7542;49.078;9.194;2023-05-27T00:43:35;4.43;;;2.60;;
14900;SDS011;7542;49.078;9.194;2023-05-27T00:44:37;3.90;;;1.93;;
14900;SDS011;7542;49.078;9.194;2023-05-27T00:45:39;2.77;;;2.20;;
14900;SDS011;7542;49.078;9.194;2023-05-27T00:46:41;2.20;;;2.00;;
14900;SDS011;7542;49.078;9.194;2023-05-27T00:47:44;4.40;;;2.40;;
14900;SDS011;7542;49.078;9.194;2023-05-27T00:48:47;2.20;;;2.00;;
14900;SDS011;7542;49.078;9.194;2023-05-27T00:49:49;3.20;;;2.37;;
14900;SDS011;7542;49.078;9.194;2023-05-27T00:50:51;2.37;;;1.80;;
14900;SDS011;7542;49.078;9.194;2023-05-27T00:51:53;3.27;;;2.03;;
14900;SDS011;7542;49.078;9.194;2023-05-27T00:52:55;2.70;;;2.50;;
14900;SDS011;7542;49.078;9.194;2023-05-27T00:53:58;2.43;;;2.00;;
14900;SDS011;7542;49.078;9.194;2023-05-27T00:55:01;3.40;;;2.33;;
14900;SDS011;7542;49.078;9.194;2023-05-27T00:56:03;2.20;;;2.10;;
14900;SDS011;7542;49.078;9.194;2023-05-27T00:57:06;3.40;;;2.00;;
14900;SDS011;7542;49.078;9.194;2023-05-27T00:58:08;3.73;;;2.07;;
14900;SDS011;7542;49.078;9.194;2023-05-27T00:59:10;3.50;;;2.50;;
14900;SDS011;7542;49.078;9.194;2023-05-27T01:00:13;2.17;;;1.97;;
14900;SDS011;7542;49.078;9.194;2023-05-27T01:01:16;2.83;;;1.90;;
14900;SDS011;7542;49.078;9.194;2023-05-27T01:02:18;3.07;;;2.00;;
14900;SDS011;7542;49.078;9.194;2023-05-27T01:03:20;2.25;;;2.10;;
14900;SDS011;7542;49.078;9.194;2023-05-27T01:04:23;3.37;;;1.93;;
14900;SDS011;7542;49.078;9.194;2023-05-27T01:05:27;3.43;;;2.03;;
14900;SDS011;7542;49.078;9.194;2023-05-27T01:06:46;2.83;;;2.17;;
14900;SDS011;7542;49.078;9.194;2023-05-27T01:11:12;3.43;;;2.07;;
14900;SDS011;7542;49.078;9.194;2023-05-27T01:12:27;2.70;;;2.00;;
14900;SDS011;7542;49.078;9.194;2023-05-27T01:13:51;2.70;;;1.90;;
14900;SDS011;7542;49.078;9.194;2023-05-27T01:15:00;2.53;;;2.13;;
14900;SDS011;7542;49.078;9.194;2023-05-27T01:16:07;3.80;;;2.20;;
14900;SDS011;7542;49.078;9.194;2023-05-27T01:17:16;2.20;;;2.10;;
14900;SDS011;7542;49.078;9.194;2023-05-27T01:18:20;2.17;;;1.90;;
14900;SDS011;7542;49.078;9.194;2023-05-27T01:19:27;2.40;;;1.97;;
14900;SDS011;7542;49.078;9.194;2023-05-27T01:20:35;2.73;;;2.13;;
14900;SDS011;7542;49.078;9.194;2023-05-27T01:21:43;2.50;;;2.13;;
14900;SDS011;7542;49.078;9.194;2023-05-27T01:22:52;2.00;;;1.90;;
14900;SDS011;7542;49.078;9.194;2023-05-27T01:23:54;2.50;;;1.80;;
14900;SDS011;7542;49.078;9.194;2023-05-27T01:25:05;2.73;;;2.10;;
14900;SDS011;7542;49.078;9.194;2023-05-27T01:26:07;2.30;;;2.10;;
14900;SDS011;7542;49.078;9.194;2023-05-27T01:27:10;2.10;;;1.93;;
14900;SDS011;7542;49.078;9.194;2023-05-27T01:28:16;2.57;;;1.80;;
14900;SDS011;7542;49.078;9.194;2023-05-27T01:29:18;2.17;;;1.93;;
14900;SDS011;7542;49.078;9.194;2023-05-27T01:30:21;2.40;;;2.20;;
14900;SDS011;7542;49.078;9.194;2023-05-27T01:31:30;2.73;;;1.90;;
14900;SDS011;7542;49.078;9.194;2023-05-27T01:34:05;2.60;;;1.87;;
14900;SDS011;7542;49.078;9.194;2023-05-27T01:36:26;2.28;;;2.08;;
14900;SDS011;7542;49.078;9.194;2023-05-27T01:37:35;1.97;;;1.87;;
14900;SDS011;7542;49.078;9.194;2023-05-27T01:38:43;2.13;;;1.83;;
14900;SDS011;7542;49.078;9.194;2023-05-27T01:39:49;1.80;;;1.70;;
14900;SDS011;7542;49.078;9.194;2023-05-27T01:40:52;2.00;;;1.90;;
14900;SDS011;7542;49.078;9.194;2023-05-27T01:41:56;2.23;;;1.90;;
14900;SDS011;7542;49.078;9.194;2023-05-27T01:43:01;2.20;;;2.10;;
14900;SDS011;7542;49.078;9.194;2023-05-27T01:44:05;2.27;;;2.03;;
14900;SDS011;7542;49.078;9.194;2023-05-27T01:45:09;1.93;;;1.80;;
14900;SDS011;7542;49.078;9.194;2023-05-27T01:46:12;1.77;;;1.67;;
14900;SDS011;7542;49.078;9.194;2023-05-27T01:47:14;1.90;;;1.80;;
14900;SDS011;7542;49.078;9.194;2023-05-27T01:48:17;2.23;;;2.03;;
14900;SDS011;7542;49.078;9.194;2023-05-27T01:49:20;2.10;;;2.00;;
14900;SDS011;7542;49.078;9.194;2023-05-27T01:50:22;2.30;;;1.70;;
14900;SDS011;7542;49.078;9.194;2023-05-27T01:51:24;2.20;;;2.00;;
14900;SDS011;7542;49.078;9.194;2023-05-27T01:52:26;1.92;;;1.60;;
14900;SDS011;7542;49.078;9.194;2023-05-27T01:53:28;2.17;;;1.90;;
14900;SDS011;7542;49.078;9.194;2023-05-27T01:54:30;1.90;;;1.80;;
14900;SDS011;7542;49.078;9.194;2023-05-27T01:55:32;2.57;;;1.80;;
14900;SDS011;7542;49.078;9.194;2023-05-27T01:56:34;1.90;;;1.80;;
14900;SDS011;7542;49.078;9.194;2023-05-27T01:57:36;2.50;;;1.77;;
14900;SDS011;7542;49.078;9.194;2023-05-27T01:58:38;2.07;;;1.67;;
14900;SDS011;7542;49.078;9.194;2023-05-27T01:59:40;1.67;;;1.57;;
14900;SDS011;7542;49.078;9.194;2023-05-27T02:00:42;2.27;;;1.90;;
14900;SDS011;7542;49.078;9.194;2023-05-27T02:01:44;2.23;;;2.03;;
14900;SDS011;7542;49.078;9.194;2023-05-27T02:02:46;2.07;;;1.93;;
14900;SDS011;7542;49.078;9.194;2023-05-27T02:03:48;2.00;;;1.90;;
14900;SDS011;7542;49.078;9.194;2023-05-27T02:04:50;2.17;;;1.60;;
14900;SDS011;7542;49.078;9.194;2023-05-27T02:05:52;2.50;;;1.37;;
14900;SDS011;7542;49.078;9.194;2023-05-27T02:06:54;2.10;;;2.00;;
14900;SDS011;7542;49.078;9.194;2023-05-27T02:07:56;1.80;;;1.70;;
14900;SDS011;7542;49.078;9.194;2023-05-27T02:08:58;2.70;;;2.00;;
14900;SDS011;7542;49.078;9.194;2023-05-27T02:10:01;2.07;;;1.80;;
14900;SDS011;7542;49.078;9.194;2023-05-27T02:11:03;1.80;;;1.70;;
14900;SDS011;7542;49.078;9.194;2023-05-27T02:12:05;1.90;;;1.80;;
14900;SDS011;7542;49.078;9.194;2023-05-27T02:13:08;1.80;;;1.70;;
14900;SDS011;7542;49.078;9.194;2023-05-27T02:14:10;1.77;;;1.67;;
14900;SDS011;7542;49.078;9.194;2023-05-27T02:15:12;1.57;;;1.40;;
14900;SDS011;7542;49.078;9.194;2023-05-27T02:16:14;1.60;;;1.50;;
14900;SDS011;7542;49.078;9.194;2023-05-27T02:17:16;1.90;;;1.67;;
14900;SDS011;7542;49.078;9.194;2023-05-27T02:18:18;1.70;;;1.60;;
14900;SDS011;7542;49.078;9.194;2023-05-27T02:19:22;1.80;;;1.70;;
14900;SDS011;7542;49.078;9.194;2023-05-27T02:20:23;1.70;;;1.60;;
14900;SDS011;7542;49.078;9.194;2023-05-27T02:21:26;1.30;;;1.20;;
14900;SDS011;7542;49.078;9.194;2023-05-27T02:22:28;1.60;;;1.50;;
14900;SDS011;7542;49.078;9.194;2023-05-27T02:23:29;1.70;;;1.60;;
14900;SDS011;7542;49.078;9.194;2023-05-27T02:24:31;1.90;;;1.80;;
14900;SDS011;7542;49.078;9.194;2023-05-27T02:25:33;1.60;;;1.50;;
14900;SDS011;7542;49.078;9.194;2023-05-27T02:26:35;2.30;;;2.00;;
14900;SDS011;7542;49.078;9.194;2023-05-27T02:27:37;2.13;;;1.77;;
14900;SDS011;7542;49.078;9.194;2023-05-27T02:28:39;1.80;;;1.70;;
14900;SDS011;7542;49.078;9.194;2023-05-27T02:29:41;1.57;;;1.47;;
14900;SDS011;7542;49.078;9.194;2023-05-27T02:30:43;1.60;;;1.50;;
14900;SDS011;7542;49.078;9.194;2023-05-27T02:31:45;1.80;;;1.70;;
14900;SDS011;7542;49.078;9.194;2023-05-27T02:32:47;1.70;;;1.60;;
14900;SDS011;7542;49.078;9.194;2023-05-27T02:33:49;1.83;;;1.73;;
14900;SDS011;7542;49.078;9.194;2023-05-27T02:34:51;2.00;;;1.70;;
14900;SDS011;7542;49.078;9.194;2023-05-27T02:35:53;2.90;;;1.87;;
14900;SDS011;7542;49.078;9.194;2023-05-27T02:36:55;1.70;;;1.60;;
14900;SDS011;7542;49.078;9.194;2023-05-27T02:37:57;2.80;;;1.67;;
14900;SDS011;7542;49.078;9.194;2023-05-27T02:38:59;1.40;;;1.40;;
14900;SDS011;7542;49.078;9.194;2023-05-27T02:40:02;2.13;;;1.63;;
14900;SDS011;7542;49.078;9.194;2023-05-27T02:41:04;1.90;;;1.70;;
14900;SDS011;7542;49.078;9.194;2023-05-27T02:42:06;1.90;;;1.60;;
14900;SDS011;7542;49.078;9.194;2023-05-27T02:43:08;1.80;;;1.70;;
14900;SDS011;7542;49.078;9.194;2023-05-27T02:44:11;1.63;;;1.53;;
14900;SDS011;7542;49.078;9.194;2023-05-27T02:45:13;3.63;;;1.80;;
14900;SDS011;7542;49.078;9.194;2023-05-27T02:46:15;2.07;;;1.50;;
14900;SDS011;7542;49.078;9.194;2023-05-27T02:47:17;1.80;;;1.70;;
14900;SDS011;7542;49.078;9.194;2023-05-27T02:48:20;1.67;;;1.57;;
14900;SDS011;7542;49.078;9.194;2023-05-27T02:49:22;1.40;;;1.30;;
14900;SDS011;7542;49.078;9.194;2023-05-27T02:50:24;1.60;;;1.50;;
14900;SDS011;7542;49.078;9.194;2023-05-27T02:51:27;1.80;;;1.70;;
14900;SDS011;7542;49.078;9.194;2023-05-27T02:52:30;1.70;;;1.60;;
14900;SDS011;7542;49.078;9.194;2023-05-27T02:53:32;1.70;;;1.60;;
14900;SDS011;7542;49.078;9.194;2023-05-27T02:54:33;1.87;;;1.77;;
14900;SDS011;7542;49.078;9.194;2023-05-27T02:55:36;1.73;;;1.63;;
14900;SDS011;7542;49.078;9.194;2023-05-27T02:56:38;1.70;;;1.60;;
14900;SDS011;7542;49.078;9.194;2023-05-27T02:57:40;1.43;;;1.40;;
14900;SDS011;7542;49.078;9.194;2023-05-27T02:58:42;1.80;;;1.70;;
14900;SDS011;7542;49.078;9.194;2023-05-27T02:59:44;1.73;;;1.57;;
14900;SDS011;7542;49.078;9.194;2023-05-27T03:00:46;2.00;;;1.80;;
14900;SDS011;7542;49.078;9.194;2023-05-27T03:01:48;1.63;;;1.53;;
14900;SDS011;7542;49.078;9.194;2023-05-27T03:02:50;1.70;;;1.60;;
14900;SDS011;7542;49.078;9.194;2023-05-27T03:03:52;1.80;;;1.70;;
14900;SDS011;7542;49.078;9.194;2023-05-27T03:04:53;1.90;;;1.80;;
14900;SDS011;7542;49.078;9.194;2023-05-27T03:05:56;2.00;;;1.83;;
14900;SDS011;7542;49.078;9.194;2023-05-27T03:06:58;1.67;;;1.60;;
14900;SDS011;7542;49.078;9.194;2023-05-27T03:08:01;1.73;;;1.63;;
14900;SDS011;7542;49.078;9.194;2023-05-27T03:09:04;1.80;;;1.70;;
14900;SDS011;7542;49.078;9.194;2023-05-27T03:10:06;1.60;;;1.50;;
14900;SDS011;7542;49.078;9.194;2023-05-27T03:11:09;1.37;;;1.37;;
14900;SDS011;7542;49.078;9.194;2023-05-27T03:12:10;1.80;;;1.70;;
14900;SDS011;7542;49.078;9.194;2023-05-27T03:13:13;1.47;;;1.40;;
14900;SDS011;7542;49.078;9.194;2023-05-27T03:14:15;1.80;;;1.70;;
14900;SDS011;7542;49.078;9.194;2023-05-27T03:15:19;1.70;;;1.60;;
14900;SDS011;7542;49.078;9.194;2023-05-27T03:16:22;1.70;;;1.60;;
14900;SDS011;7542;49.078;9.194;2023-05-27T03:17:26;1.67;;;1.57;;
14900;SDS011;7542;49.078;9.194;2023-05-27T03:18:28;1.70;;;1.60;;
14900;SDS011;7542;49.078;9.194;2023-05-27T03:19:30;1.87;;;1.77;;
14900;SDS011;7542;49.078;9.194;2023-05-27T03:20:31;2.00;;;1.73;;
14900;SDS011;7542;49.078;9.194;2023-05-27T03:21:34;2.00;;;1.90;;
14900;SDS011;7542;49.078;9.194;2023-05-27T03:22:37;2.17;;;1.40;;
14900;SDS011;7542;49.078;9.194;2023-05-27T03:23:39;1.73;;;1.63;;
14900;SDS011;7542;49.078;9.194;2023-05-27T03:24:40;1.60;;;1.50;;
14900;SDS011;7542;49.078;9.194;2023-05-27T03:25:42;1.93;;;1.60;;
14900;SDS011;7542;49.078;9.194;2023-05-27T03:26:44;2.07;;;1.60;;
14900;SDS011;7542;49.078;9.194;2023-05-27T03:27:46;1.33;;;1.23;;
14900;SDS011;7542;49.078;9.194;2023-05-27T03:28:48;1.60;;;1.50;;
14900;SDS011;7542;49.078;9.194;2023-05-27T03:29:51;1.60;;;1.50;;
14900;SDS011;7542;49.078;9.194;2023-05-27T03:30:53;1.80;;;1.70;;
14900;SDS011;7542;49.078;9.194;2023-05-27T03:31:57;1.30;;;1.30;;
14900;SDS011;7542;49.078;9.194;2023-05-27T03:32:59;1.47;;;1.37;;
14900;SDS011;7542;49.078;9.194;2023-05-27T03:34:02;1.60;;;1.50;;
14900;SDS011;7542;49.078;9.194;2023-05-27T03:35:04;1.33;;;1.33;;
14900;SDS011;7542;49.078;9.194;2023-05-27T03:36:07;1.70;;;1.60;;
14900;SDS011;7542;49.078;9.194;2023-05-27T03:37:09;1.70;;;1.60;;
14900;SDS011;7542;49.078;9.194;2023-05-27T03:38:11;1.50;;;1.40;;
14900;SDS011;7542;49.078;9.194;2023-05-27T03:39:13;1.60;;;1.50;;
14900;SDS011;7542;49.078;9.194;2023-05-27T03:40:15;1.87;;;1.50;;
14900;SDS011;7542;49.078;9.194;2023-05-27T03:41:17;1.40;;;1.30;;
14900;SDS011;7542;49.078;9.194;2023-05-27T03:42:19;1.47;;;1.37;;
14900;SDS011;7542;49.078;9.194;2023-05-27T03:43:21;1.10;;;1.10;;
14900;SDS011;7542;49.078;9.194;2023-05-27T03:44:23;1.40;;;1.30;;
14900;SDS011;7542;49.078;9.194;2023-05-27T03:45:25;1.40;;;1.40;;
14900;SDS011;7542;49.078;9.194;2023-05-27T03:46:27;1.67;;;1.57;;
14900;SDS011;7542;49.078;9.194;2023-05-27T03:47:29;1.37;;;1.37;;
14900;SDS011;7542;49.078;9.194;2023-05-27T03:48:31;1.60;;;1.60;;
14900;SDS011;7542;49.078;9.194;2023-05-27T03:49:33;1.50;;;1.40;;
14900;SDS011;7542;49.078;9.194;2023-05-27T03:50:36;1.30;;;1.30;;
14900;SDS011;7542;49.078;9.194;2023-05-27T03:51:38;1.33;;;1.33;;
14900;SDS011;7542;49.078;9.194;2023-05-27T03:52:39;1.70;;;1.60;;
14900;SDS011;7542;49.078;9.194;2023-05-27T03:53:41;1.70;;;1.60;;
14900;SDS011;7542;49.078;9.194;2023-05-27T03:54:43;1.37;;;1.27;;
14900;SDS011;7542;49.078;9.194;2023-05-27T03:55:45;1.47;;;1.37;;
14900;SDS011;7542;49.078;9.194;2023-05-27T03:56:47;1.73;;;1.63;;
14900;SDS011;7542;49.078;9.194;2023-05-27T03:57:49;1.40;;;1.40;;
14900;SDS011;7542;49.078;9.194;2023-05-27T03:58:51;1.70;;;1.60;;
14900;SDS011;7542;49.078;9.194;2023-05-27T03:59:53;1.33;;;1.33;;
14900;SDS011;7542;49.078;9.194;2023-05-27T04:00:56;1.33;;;1.33;;
14900;SDS011;7542;49.078;9.194;2023-05-27T04:01:58;1.87;;;1.70;;
14900;SDS011;7542;49.078;9.194;2023-05-27T04:03:00;1.40;;;1.30;;
14900;SDS011;7542;49.078;9.194;2023-05-27T04:04:02;1.50;;;1.40;;
14900;SDS011;7542;49.078;9.194;2023-05-27T04:05:04;1.53;;;1.37;;
14900;SDS011;7542;49.078;9.194;2023-05-27T04:06:07;1.67;;;1.53;;
14900;SDS011;7542;49.078;9.194;2023-05-27T04:07:09;1.40;;;1.30;;
14900;SDS011;7542;49.078;9.194;2023-05-27T04:08:10;1.40;;;1.30;;
14900;SDS011;7542;49.078;9.194;2023-05-27T04:09:14;1.40;;;1.30;;
14900;SDS011;7542;49.078;9.194;2023-05-27T04:10:16;1.23;;;1.23;;
14900;SDS011;7542;49.078;9.194;2023-05-27T04:11:18;1.03;;;1.03;;
14900;SDS011;7542;49.078;9.194;2023-05-27T04:12:22;1.30;;;1.30;;
14900;SDS011;7542;49.078;9.194;2023-05-27T04:13:24;1.57;;;1.47;;
14900;SDS011;7542;49.078;9.194;2023-05-27T04:14:26;1.30;;;1.30;;
14900;SDS011;7542;49.078;9.194;2023-05-27T04:15:28;1.40;;;1.30;;
14900;SDS011;7542;49.078;9.194;2023-05-27T04:16:30;1.23;;;1.13;;
14900;SDS011;7542;49.078;9.194;2023-05-27T04:17:32;1.83;;;1.47;;
14900;SDS011;7542;49.078;9.194;2023-05-27T04:18:34;1.77;;;1.67;;
14900;SDS011;7542;49.078;9.194;2023-05-27T04:19:36;1.23;;;1.23;;
14900;SDS011;7542;49.078;9.194;2023-05-27T04:20:39;1.50;;;1.40;;
14900;SDS011;7542;49.078;9.194;2023-05-27T04:21:44;1.70;;;1.60;;
14900;SDS011;7542;49.078;9.194;2023-05-27T04:22:46;1.30;;;1.30;;
14900;SDS011;7542;49.078;9.194;2023-05-27T04:23:48;1.50;;;1.40;;
14900;SDS011;7542;49.078;9.194;2023-05-27T04:24:50;1.30;;;1.30;;
14900;SDS011;7542;49.078;9.194;2023-05-27T04:25:54;1.27;;;1.17;;
14900;SDS011;7542;49.078;9.194;2023-05-27T04:26:56;1.47;;;1.30;;
14900;SDS011;7542;49.078;9.194;2023-05-27T04:27:58;1.40;;;1.40;;
14900;SDS011;7542;49.078;9.194;2023-05-27T04:29:00;1.43;;;1.30;;
14900;SDS011;7542;49.078;9.194;2023-05-27T04:30:05;1.70;;;1.60;;
14900;SDS011;7542;49.078;9.194;2023-05-27T04:31:10;1.40;;;1.40;;
14900;SDS011;7542;49.078;9.194;2023-05-27T04:32:13;1.40;;;1.30;;
14900;SDS011;7542;49.078;9.194;2023-05-27T04:33:18;1.60;;;1.50;;
14900;SDS011;7542;49.078;9.194;2023-05-27T04:34:20;1.40;;;1.20;;
14900;SDS011;7542;49.078;9.194;2023-05-27T04:35:22;1.67;;;1.57;;
14900;SDS011;7542;49.078;9.194;2023-05-27T04:36:24;1.40;;;1.30;;
14900;SDS011;7542;49.078;9.194;2023-05-27T04:37:28;2.10;;;1.67;;
14900;SDS011;7542;49.078;9.194;2023-05-27T04:38:30;1.53;;;1.40;;
14900;SDS011;7542;49.078;9.194;2023-05-27T04:39:32;1.27;;;1.27;;
14900;SDS011;7542;49.078;9.194;2023-05-27T04:40:35;1.37;;;1.37;;
14900;SDS011;7542;49.078;9.194;2023-05-27T04:41:37;1.03;;;1.03;;
14900;SDS011;7542;49.078;9.194;2023-05-27T04:42:41;1.20;;;1.20;;
14900;SDS011;7542;49.078;9.194;2023-05-27T04:43:44;1.43;;;1.33;;
14900;SDS011;7542;49.078;9.194;2023-05-27T04:44:46;1.23;;;1.23;;
14900;SDS011;7542;49.078;9.194;2023-05-27T04:45:49;1.10;;;1.10;;
14900;SDS011;7542;49.078;9.194;2023-05-27T04:46:52;1.30;;;1.30;;
14900;SDS011;7542;49.078;9.194;2023-05-27T04:47:55;1.67;;;1.30;;
14900;SDS011;7542;49.078;9.194;2023-05-27T04:48:58;1.43;;;1.33;;
14900;SDS011;7542;49.078;9.194;2023-05-27T04:50:01;1.43;;;1.43;;
14900;SDS011;7542;49.078;9.194;2023-05-27T04:51:06;1.40;;;1.40;;
14900;SDS011;7542;49.078;9.194;2023-05-27T04:52:08;1.70;;;1.60;;
14900;SDS011;7542;49.078;9.194;2023-05-27T04:53:10;1.40;;;1.30;;
14900;SDS011;7542;49.078;9.194;2023-05-27T04:54:12;1.27;;;1.27;;
14900;SDS011;7542;49.078;9.194;2023-05-27T04:55:14;1.30;;;1.30;;
14900;SDS011;7542;49.078;9.194;2023-05-27T04:56:17;1.53;;;1.43;;
14900;SDS011;7542;49.078;9.194;2023-05-27T04:57:18;1.27;;;1.27;;
14900;SDS011;7542;49.078;9.194;2023-05-27T04:58:20;1.30;;;1.30;;
14900;SDS011;7542;49.078;9.194;2023-05-27T04:59:22;1.13;;;1.13;;
14900;SDS011;7542;49.078;9.194;2023-05-27T05:00:30;1.33;;;1.23;;
14900;SDS011;7542;49.078;9.194;2023-05-27T05:02:02;1.30;;;1.30;;
14900;SDS011;7542;49.078;9.194;2023-05-27T05:03:22;1.13;;;1.13;;
14900;SDS011;7542;49.078;9.194;2023-05-27T05:04:38;1.63;;;1.53;;
14900;SDS011;7542;49.078;9.194;2023-05-27T05:05:40;1.10;;;1.10;;
14900;SDS011;7542;49.078;9.194;2023-05-27T05:06:41;1.57;;;1.47;;
14900;SDS011;7542;49.078;9.194;2023-05-27T05:07:44;1.33;;;1.33;;
14900;SDS011;7542;49.078;9.194;2023-05-27T05:08:46;1.60;;;1.50;;
14900;SDS011;7542;49.078;9.194;2023-05-27T05:09:48;1.30;;;1.20;;
14900;SDS011;7542;49.078;9.194;2023-05-27T05:10:50;1.40;;;1.40;;
14900;SDS011;7542;49.078;9.194;2023-05-27T05:11:53;1.30;;;1.30;;
14900;SDS011;7542;49.078;9.194;2023-05-27T05:12:55;1.40;;;1.30;;
14900;SDS011;7542;49.078;9.194;2023-05-27T05:13:57;1.20;;;1.20;;
14900;SDS011;7542;49.078;9.194;2023-05-27T05:14:59;1.90;;;1.27;;
14900;SDS011;7542;49.078;9.194;2023-05-27T05:16:01;1.23;;;1.13;;
14900;SDS011;7542;49.078;9.194;2023-05-27T05:17:03;1.60;;;1.50;;
14900;SDS011;7542;49.078;9.194;2023-05-27T05:18:05;1.40;;;1.40;;
14900;SDS011;7542;49.078;9.194;2023-05-27T05:19:07;1.23;;;1.20;;
14900;SDS011;7542;49.078;9.194;2023-05-27T05:20:10;1.33;;;1.30;;
14900;SDS011;7542;49.078;9.194;2023-05-27T05:21:13;1.53;;;1.43;;
14900;SDS011;7542;49.078;9.194;2023-05-27T05:22:15;1.20;;;1.20;;
14900;SDS011;7542;49.078;9.194;2023-05-27T05:23:20;1.03;;;1.03;;
14900;SDS011;7542;49.078;9.194;2023-05-27T05:24:22;1.23;;;1.23;;
14900;SDS011;7542;49.078;9.194;2023-05-27T05:25:23;1.47;;;1.37;;
14900;SDS011;7542;49.078;9.194;2023-05-27T05:26:26;1.50;;;1.40;;
14900;SDS011;7542;49.078;9.194;2023-05-27T05:27:28;1.30;;;1.20;;
14900;SDS011;7542;49.078;9.194;2023-05-27T05:28:29;1.30;;;1.30;;
14900;SDS011;7542;49.078;9.194;2023-05-27T05:29:32;1.17;;;1.17;;
14900;SDS011;7542;49.078;9.194;2023-05-27T05:30:34;1.60;;;1.50;;
14900;SDS011;7542;49.078;9.194;2023-05-27T05:31:36;1.20;;;1.20;;
14900;SDS011;7542;49.078;9.194;2023-05-27T05:32:38;1.10;;;1.10;;
14900;SDS011;7542;49.078;9.194;2023-05-27T05:33:40;1.10;;;1.10;;
14900;SDS011;7542;49.078;9.194;2023-05-27T05:34:42;1.30;;;1.10;;
14900;SDS011;7542;49.078;9.194;2023-05-27T05:35:44;1.30;;;1.30;;
14900;SDS011;7542;49.078;9.194;2023-05-27T05:36:46;1.27;;;1.23;;
14900;SDS011;7542;49.078;9.194;2023-05-27T05:37:48;1.40;;;1.30;;
14900;SDS011;7542;49.078;9.194;2023-05-27T05:38:50;1.50;;;1.50;;
14900;SDS011;7542;49.078;9.194;2023-05-27T05:39:53;1.10;;;1.10;;
14900;SDS011;7542;49.078;9.194;2023-05-27T05:40:57;1.30;;;1.30;;
14900;SDS011;7542;49.078;9.194;2023-05-27T05:41:58;1.47;;;1.37;;
14900;SDS011;7542;49.078;9.194;2023-05-27T05:43:01;1.23;;;1.20;;
14900;SDS011;7542;49.078;9.194;2023-05-27T05:44:03;1.30;;;1.20;;
14900;SDS011;7542;49.078;9.194;2023-05-27T05:45:05;1.30;;;1.30;;
14900;SDS011;7542;49.078;9.194;2023-05-27T05:46:08;1.20;;;1.20;;
14900;SDS011;7542;49.078;9.194;2023-05-27T05:47:09;1.40;;;1.30;;
14900;SDS011;7542;49.078;9.194;2023-05-27T05:48:11;1.30;;;1.30;;
14900;SDS011;7542;49.078;9.194;2023-05-27T05:49:13;1.20;;;1.20;;
14900;SDS011;7542;49.078;9.194;2023-05-27T05:50:15;1.67;;;1.30;;
14900;SDS011;7542;49.078;9.194;2023-05-27T05:51:17;1.20;;;1.20;;
14900;SDS011;7542;49.078;9.194;2023-05-27T05:52:19;1.10;;;1.10;;
14900;SDS011;7542;49.078;9.194;2023-05-27T05:53:21;1.10;;;1.10;;
14900;SDS011;7542;49.078;9.194;2023-05-27T05:54:23;1.17;;;1.17;;
14900;SDS011;7542;49.078;9.194;2023-05-27T05:55:25;1.30;;;1.30;;
14900;SDS011;7542;49.078;9.194;2023-05-27T05:56:27;1.63;;;1.40;;
14900;SDS011;7542;49.078;9.194;2023-05-27T05:57:29;1.17;;;1.13;;
14900;SDS011;7542;49.078;9.194;2023-05-27T05:58:35;1.10;;;1.10;;
14900;SDS011;7542;49.078;9.194;2023-05-27T05:59:37;1.50;;;1.30;;
14900;SDS011;7542;49.078;9.194;2023-05-27T06:00:38;0.97;;;0.97;;
14900;SDS011;7542;49.078;9.194;2023-05-27T06:01:41;1.10;;;1.10;;
14900;SDS011;7542;49.078;9.194;2023-05-27T06:02:42;1.10;;;1.10;;
14900;SDS011;7542;49.078;9.194;2023-05-27T06:03:45;1.03;;;1.03;;
14900;SDS011;7542;49.078;9.194;2023-05-27T06:04:47;1.00;;;1.00;;
14900;SDS011;7542;49.078;9.194;2023-05-27T06:05:49;1.20;;;1.20;;
14900;SDS011;7542;49.078;9.194;2023-05-27T06:06:51;1.23;;;1.23;;
14900;SDS011;7542;49.078;9.194;2023-05-27T06:07:57;1.10;;;1.10;;
14900;SDS011;7542;49.078;9.194;2023-05-27T06:08:58;1.20;;;1.20;;
14900;SDS011;7542;49.078;9.194;2023-05-27T06:10:00;1.47;;;1.37;;
14900;SDS011;7542;49.078;9.194;2023-05-27T06:11:02;1.13;;;1.13;;
14900;SDS011;7542;49.078;9.194;2023-05-27T06:12:05;1.20;;;1.20;;
14900;SDS011;7542;49.078;9.194;2023-05-27T06:13:07;0.93;;;0.93;;
14900;SDS011;7542;49.078;9.194;2023-05-27T06:14:12;1.20;;;1.20;;
14900;SDS011;7542;49.078;9.194;2023-05-27T06:15:14;1.37;;;1.33;;
14900;SDS011;7542;49.078;9.194;2023-05-27T06:16:16;1.17;;;1.17;;
14900;SDS011;7542;49.078;9.194;2023-05-27T06:17:19;1.20;;;0.97;;
14900;SDS011;7542;49.078;9.194;2023-05-27T06:18:21;1.20;;;1.20;;
14900;SDS011;7542;49.078;9.194;2023-05-27T06:19:23;1.23;;;1.13;;
14900;SDS011;7542;49.078;9.194;2023-05-27T06:20:25;3.90;;;1.37;;
14900;SDS011;7542;49.078;9.194;2023-05-27T06:21:27;1.70;;;1.43;;
14900;SDS011;7542;49.078;9.194;2023-05-27T06:22:30;2.63;;;1.80;;
14900;SDS011;7542;49.078;9.194;2023-05-27T06:23:32;2.40;;;1.50;;
14900;SDS011;7542;49.078;9.194;2023-05-27T06:24:34;1.80;;;1.67;;
14900;SDS011;7542;49.078;9.194;2023-05-27T06:25:36;2.67;;;1.70;;
14900;SDS011;7542;49.078;9.194;2023-05-27T06:26:38;2.70;;;1.80;;
14900;SDS011;7542;49.078;9.194;2023-05-27T06:27:40;2.17;;;1.53;;
14900;SDS011;7542;49.078;9.194;2023-05-27T06:28:42;2.73;;;2.10;;
14900;SDS011;7542;49.078;9.194;2023-05-27T06:29:45;4.87;;;1.70;;
14900;SDS011;7542;49.078;9.194;2023-05-27T06:30:47;2.90;;;1.80;;